Terminal Aerodrome Forecast
Issued by NWS Wilmington, OH

Current Version | Previous Version | Graphics & Text | Print | Product List | Glossary On
Versions: 1 2 3 4 5 6 7 8 9 10 11 12 13 14 15
000
FTUS41 KILN 280900 AAA
TAFILN
TAF AMD
KILN 280948Z 2810/2906 03005KT P6SM SCT250
      TEMPO 2810/2813 5SM BR
     FM281300 06006KT P6SM SCT080 BKN250
     FM290200 08004KT P6SM SCT250=

USA.gov is the U.S. government's official web portal to all federal, state and local government web resources and services.